Time;durP1;ratioP1;P1;durP2;ratioP2;P2;SDS_P1;SDS_P2;PMS_P1;PMS_P2;Temp;Humidity;BMP_temperature;BMP_pressure;BME280_temperature;BME280_humidity;BME280_pressure;Samples;Min_cycle;Max_cycle;Signal;HPM_P1;HPM_P2
2022/07/06 00:00:06;;;;;;;6.50;1.13;;;16.50;99.90;;;;;;4989903;28;20098;-69
2022/07/06 00:02:33;;;;;;;14.60;2.60;;;16.50;99.90;;;;;;4991598;28;20124;-67
2022/07/06 00:05:00;;;;;;;2.35;0.98;;;16.50;99.90;;;;;;4990146;28;20057;-72
2022/07/06 00:07:27;;;;;;;5.30;1.13;;;16.50;99.90;;;;;;4988688;28;20215;-70
2022/07/06 00:09:54;;;;;;;2.58;1.52;;;16.50;99.90;;;;;;4988927;28;20109;-67
2022/07/06 00:12:21;;;;;;;7.78;1.75;;;16.50;99.90;;;;;;4990788;28;20074;-71
2022/07/06 00:14:48;;;;;;;4.32;2.15;;;16.50;99.90;;;;;;4989791;28;20058;-69
2022/07/06 00:17:15;;;;;;;9.57;2.42;;;16.50;99.90;;;;;;4988616;28;20184;-68
2022/07/06 00:19:42;;;;;;;6.05;1.50;;;16.40;99.90;;;;;;4989835;28;20057;-66
2022/07/06 00:22:09;;;;;;;4.88;1.48;;;16.40;99.90;;;;;;4990049;28;20050;-67
2022/07/06 00:24:36;;;;;;;4.68;1.63;;;16.40;99.90;;;;;;4989539;28;20096;-69
2022/07/06 00:27:03;;;;;;;4.32;1.10;;;16.40;99.90;;;;;;4988954;28;20050;-68
2022/07/06 00:29:30;;;;;;;5.38;1.13;;;16.30;99.90;;;;;;4985854;28;20050;-69
2022/07/06 00:31:57;;;;;;;1.55;0.80;;;16.30;99.90;;;;;;4989535;28;20050;-67
2022/07/06 00:34:24;;;;;;;1.67;1.05;;;16.30;99.90;;;;;;4989881;28;20229;-67
2022/07/06 00:36:51;;;;;;;4.22;1.02;;;16.30;99.90;;;;;;4988092;28;20196;-69
2022/07/06 00:39:19;;;;;;;3.30;1.70;;;16.30;99.90;;;;;;4986022;28;20050;-68
2022/07/06 00:41:46;;;;;;;4.30;1.50;;;16.30;99.90;;;;;;4988430;28;20052;-70
2022/07/06 00:44:13;;;;;;;1.90;1.15;;;16.20;99.90;;;;;;4987604;28;20069;-71
2022/07/06 00:46:40;;;;;;;1.98;1.02;;;16.20;99.90;;;;;;4988195;28;20054;-66
2022/07/06 00:50:13;;;;;;;3.75;1.17;;;16.20;99.90;;;;;;4988266;28;20049;-67
2022/07/06 00:51:54;;;;;;;2.17;1.10;;;16.20;99.90;;;;;;4989912;28;20061;-68
2022/07/06 00:54:21;;;;;;;3.53;1.58;;;16.10;99.90;;;;;;4989802;28;20485;-70
2022/07/06 00:56:48;;;;;;;4.38;1.55;;;16.10;99.90;;;;;;4986345;28;20100;-69
2022/07/06 00:59:15;;;;;;;2.85;1.40;;;16.10;99.90;;;;;;4969938;28;20090;-69
2022/07/06 01:01:42;;;;;;;3.22;1.25;;;16.00;99.90;;;;;;4970519;28;20142;-66
2022/07/06 01:04:09;;;;;;;3.20;1.10;;;16.10;99.90;;;;;;4975210;28;21350;-66
2022/07/06 01:06:36;;;;;;;3.83;1.30;;;16.00;99.90;;;;;;4985632;28;20065;-71
2022/07/06 01:09:05;;;;;;;2.15;1.38;;;16.00;99.90;;;;;;4985792;28;20091;-67
2022/07/06 01:11:32;;;;;;;5.07;1.30;;;15.90;99.90;;;;;;4988973;28;20057;-67
2022/07/06 01:14:00;;;;;;;3.17;1.40;;;15.90;99.90;;;;;;4988424;28;20401;-71
2022/07/06 01:16:27;;;;;;;3.33;1.25;;;15.90;99.90;;;;;;4988361;28;20447;-69
2022/07/06 01:18:54;;;;;;;7.07;1.70;;;15.90;99.90;;;;;;4988896;28;20471;-66
2022/07/06 01:21:22;;;;;;;3.22;1.95;;;15.90;99.90;;;;;;4985564;28;20496;-68
2022/07/06 01:23:49;;;;;;;3.38;1.10;;;15.90;99.90;;;;;;4988738;28;20046;-70
2022/07/06 01:26:19;;;;;;;5.32;1.77;;;15.90;99.90;;;;;;4987754;28;20675;-69
2022/07/06 01:28:51;;;;;;;4.85;1.15;;;15.80;99.90;;;;;;4988243;28;20054;-69
2022/07/06 01:31:24;;;;;;;3.83;1.58;;;15.80;99.90;;;;;;4986359;28;20077;-72
2022/07/06 01:33:54;;;;;;;5.55;1.40;;;15.80;99.90;;;;;;4990829;28;20053;-69
2022/07/06 01:36:22;;;;;;;4.28;1.65;;;15.80;99.90;;;;;;5004132;28;20480;-70
2022/07/06 01:38:56;;;;;;;2.22;1.10;;;15.80;99.90;;;;;;4984809;28;20053;-67
2022/07/06 01:41:24;;;;;;;1.40;0.93;;;15.80;99.90;;;;;;4985499;28;20054;-67
2022/07/06 01:43:50;;;;;;;6.40;1.40;;;15.80;99.90;;;;;;4988269;28;20132;-69
2022/07/06 01:46:19;;;;;;;1.83;0.95;;;15.80;99.90;;;;;;4983599;28;20240;-67
2022/07/06 01:48:47;;;;;;;2.75;1.52;;;15.80;99.90;;;;;;4987373;28;20046;-68
2022/07/06 01:51:15;;;;;;;5.43;1.38;;;15.80;99.90;;;;;;4987483;28;20058;-71
2022/07/06 01:53:44;;;;;;;3.13;1.20;;;15.70;99.90;;;;;;4988826;28;20655;-70
2022/07/06 01:56:12;;;;;;;4.90;1.10;;;15.70;99.90;;;;;;4988527;28;20061;-68
2022/07/06 01:58:39;;;;;;;6.38;1.75;;;15.70;99.90;;;;;;4986157;28;20161;-68
2022/07/06 02:01:12;;;;;;;8.27;1.73;;;15.70;99.90;;;;;;4985051;28;21065;-71
2022/07/06 02:03:40;;;;;;;2.15;1.50;;;15.70;99.90;;;;;;4987895;28;20053;-67
2022/07/06 02:06:08;;;;;;;3.65;1.58;;;15.60;99.90;;;;;;4985173;28;20094;-71
2022/07/06 02:08:36;;;;;;;1.13;1.00;;;15.60;99.90;;;;;;4988719;28;20061;-69
2022/07/06 02:11:07;;;;;;;3.10;1.10;;;15.60;99.90;;;;;;4986638;28;20109;-67
2022/07/06 02:13:37;;;;;;;5.10;1.23;;;15.60;99.90;;;;;;4986186;28;20057;-68
2022/07/06 02:16:07;;;;;;;6.80;1.05;;;15.60;99.90;;;;;;4986072;28;20051;-71
2022/07/06 02:18:34;;;;;;;5.65;2.03;;;15.60;99.90;;;;;;4985663;28;20065;-69
2022/07/06 02:21:01;;;;;;;4.30;1.20;;;15.60;99.90;;;;;;4988432;28;20772;-70
2022/07/06 02:23:28;;;;;;;2.05;1.10;;;15.50;99.90;;;;;;4983368;28;20046;-68
2022/07/06 02:25:55;;;;;;;3.17;1.05;;;15.50;99.90;;;;;;4978009;28;20060;-70
2022/07/06 02:28:23;;;;;;;4.68;1.23;;;15.50;99.90;;;;;;4984706;28;20041;-69
2022/07/06 02:30:51;;;;;;;14.48;1.85;;;15.50;99.90;;;;;;4984439;28;20188;-68
2022/07/06 02:33:19;;;;;;;2.03;1.33;;;15.50;99.90;;;;;;4985722;28;20050;-69
2022/07/06 02:35:46;;;;;;;5.20;1.55;;;15.50;99.90;;;;;;4985102;28;20057;-70
2022/07/06 02:38:13;;;;;;;3.92;1.50;;;15.50;99.90;;;;;;4987749;28;20416;-69
2022/07/06 02:40:40;;;;;;;4.45;1.23;;;15.50;99.90;;;;;;4987554;28;20389;-70
2022/07/06 02:43:07;;;;;;;3.08;1.20;;;15.50;99.90;;;;;;4983386;28;20053;-67
2022/07/06 02:45:35;;;;;;;4.57;1.05;;;15.50;99.90;;;;;;4984839;28;21153;-70
2022/07/06 02:48:03;;;;;;;3.92;0.88;;;15.50;99.90;;;;;;4984651;28;20050;-73
2022/07/06 02:50:31;;;;;;;3.45;0.95;;;15.50;99.90;;;;;;4986015;28;20056;-69
2022/07/06 02:52:58;;;;;;;4.13;1.13;;;15.40;99.90;;;;;;4985941;28;20057;-70
2022/07/06 02:55:26;;;;;;;1.80;0.77;;;15.40;99.90;;;;;;5000576;28;20054;-69
2022/07/06 02:57:53;;;;;;;4.05;1.10;;;15.40;99.90;;;;;;4985222;28;20057;-71
2022/07/06 03:00:22;;;;;;;2.58;0.73;;;15.40;99.90;;;;;;4985729;28;20077;-70
2022/07/06 03:02:50;;;;;;;1.40;0.80;;;15.40;99.90;;;;;;4986114;28;20148;-70
2022/07/06 03:05:17;;;;;;;3.47;0.85;;;15.40;99.90;;;;;;4984283;28;20701;-68
2022/07/06 03:07:44;;;;;;;2.75;1.00;;;15.40;99.90;;;;;;4985393;28;20605;-69
2022/07/06 03:10:11;;;;;;;2.55;0.85;;;15.40;99.90;;;;;;4985011;28;20050;-70
2022/07/06 03:12:39;;;;;;;3.45;1.27;;;15.30;99.90;;;;;;4984547;28;20050;-70
2022/07/06 03:15:09;;;;;;;2.92;1.77;;;15.40;99.90;;;;;;4984592;28;20050;-69
2022/07/06 03:17:38;;;;;;;3.10;0.88;;;15.40;99.90;;;;;;4984598;28;20046;-66
2022/07/06 03:20:07;;;;;;;3.00;0.63;;;15.40;99.90;;;;;;4988563;28;20046;-66
2022/07/06 03:22:34;;;;;;;3.10;0.98;;;15.40;99.90;;;;;;4971728;28;20058;-67
2022/07/06 03:25:03;;;;;;;4.60;0.90;;;15.40;99.90;;;;;;4984349;28;20149;-69
2022/07/06 03:27:30;;;;;;;2.08;1.00;;;15.40;99.90;;;;;;4988255;28;21410;-66
2022/07/06 03:29:58;;;;;;;6.72;1.27;;;15.40;99.90;;;;;;4988776;28;20197;-67
2022/07/06 03:32:25;;;;;;;2.47;1.88;;;15.40;99.90;;;;;;5007545;28;20065;-66
2022/07/06 03:34:52;;;;;;;4.05;1.20;;;15.40;99.90;;;;;;4989917;28;20725;-69
2022/07/06 03:37:19;;;;;;;2.88;1.38;;;15.50;99.90;;;;;;4988450;28;20050;-67
2022/07/06 03:39:47;;;;;;;1.85;0.50;;;15.50;99.90;;;;;;4990098;28;20050;-67
2022/07/06 03:42:15;;;;;;;7.60;1.20;;;15.50;99.90;;;;;;4988386;28;20133;-74
2022/07/06 03:44:42;;;;;;;4.30;1.25;;;15.60;99.90;;;;;;5004163;28;20137;-71
2022/07/06 03:47:09;;;;;;;1.67;1.02;;;15.60;99.90;;;;;;4986639;28;20061;-73
2022/07/06 03:49:37;;;;;;;4.57;1.00;;;15.60;99.90;;;;;;4989236;28;20056;-68
2022/07/06 03:52:06;;;;;;;5.20;1.30;;;15.70;99.90;;;;;;4989249;28;20088;-71
2022/07/06 03:54:40;;;;;;;5.88;0.95;;;15.70;99.90;;;;;;5007159;28;20054;-68
2022/07/06 03:57:11;;;;;;;3.20;1.00;;;15.70;99.90;;;;;;4988585;28;20053;-70
2022/07/06 03:59:38;;;;;;;5.20;1.27;;;15.70;99.90;;;;;;4987390;28;20381;-70
2022/07/06 04:02:05;;;;;;;2.55;1.38;;;15.70;99.90;;;;;;5006846;28;20057;-69
2022/07/06 04:04:34;;;;;;;4.25;1.10;;;15.70;99.90;;;;;;4988559;28;20563;-69
2022/07/06 04:07:01;;;;;;;3.42;1.15;;;15.80;99.90;;;;;;5004301;28;20400;-71
2022/07/06 04:09:28;;;;;;;2.35;0.85;;;15.70;99.90;;;;;;4987905;28;20456;-67
2022/07/06 04:11:55;;;;;;;2.95;1.63;;;15.70;99.90;;;;;;4990107;28;20058;-67
2022/07/06 04:14:22;;;;;;;1.60;0.85;;;15.60;99.90;;;;;;4987746;28;20068;-65
2022/07/06 04:16:49;;;;;;;2.00;0.88;;;15.60;99.90;;;;;;4988698;28;20057;-68
2022/07/06 04:19:16;;;;;;;3.15;1.20;;;15.60;99.90;;;;;;4970860;28;20189;-66
2022/07/06 04:21:43;;;;;;;3.17;2.15;;;15.70;99.90;;;;;;4987961;28;20483;-69
2022/07/06 04:24:10;;;;;;;0.98;0.68;;;15.70;99.90;;;;;;4989838;28;20500;-70
2022/07/06 04:26:38;;;;;;;2.53;0.80;;;15.70;99.90;;;;;;5004260;28;20050;-69
2022/07/06 04:29:05;;;;;;;2.47;0.90;;;15.70;99.90;;;;;;4986436;28;20046;-67
2022/07/06 04:31:32;;;;;;;3.50;1.25;;;15.70;99.90;;;;;;4988086;28;20062;-69
2022/07/06 04:33:59;;;;;;;1.52;0.95;;;15.80;99.90;;;;;;4988084;28;20138;-67
2022/07/06 04:36:27;;;;;;;2.25;0.80;;;15.80;99.90;;;;;;4992283;28;20096;-70
2022/07/06 04:38:55;;;;;;;4.63;1.30;;;15.80;99.90;;;;;;4973210;28;20082;-68
2022/07/06 04:41:22;;;;;;;2.33;0.95;;;15.80;99.90;;;;;;4974241;28;20069;-66
2022/07/06 04:43:51;;;;;;;11.73;3.20;;;15.80;99.90;;;;;;4982310;28;20227;-68
2022/07/06 04:46:19;;;;;;;8.70;1.33;;;15.80;99.90;;;;;;4988202;28;20041;-69
2022/07/06 04:48:49;;;;;;;2.47;1.05;;;15.70;99.90;;;;;;4989835;28;20571;-70
2022/07/06 04:51:22;;;;;;;3.47;1.35;;;15.70;99.90;;;;;;4986494;28;20468;-69
2022/07/06 04:53:49;;;;;;;2.60;1.30;;;15.70;99.90;;;;;;4988215;28;20427;-69
2022/07/06 04:56:16;;;;;;;2.85;1.20;;;15.70;99.90;;;;;;4988015;28;20211;-71
2022/07/06 04:58:43;;;;;;;4.10;0.95;;;15.80;99.90;;;;;;4988206;28;20770;-73
2022/07/06 05:01:14;;;;;;;2.70;2.38;;;15.80;99.90;;;;;;4992885;28;20055;-68
2022/07/06 05:03:41;;;;;;;3.42;1.00;;;15.80;99.90;;;;;;4992917;28;20046;-68
2022/07/06 05:06:11;;;;;;;6.40;2.10;;;15.90;99.90;;;;;;4987076;28;20061;-69
2022/07/06 05:08:38;;;;;;;2.97;1.10;;;16.00;99.90;;;;;;5004919;28;20060;-67
2022/07/06 05:11:05;;;;;;;1.17;0.90;;;15.90;99.90;;;;;;4986881;28;20050;-69
2022/07/06 05:13:32;;;;;;;4.45;1.35;;;16.00;99.90;;;;;;4987721;28;20074;-68
2022/07/06 05:16:00;;;;;;;2.45;1.33;;;16.00;99.90;;;;;;4986845;28;20046;-71
2022/07/06 05:18:27;;;;;;;2.47;1.20;;;16.00;99.90;;;;;;5004685;28;20053;-68
2022/07/06 05:20:55;;;;;;;1.77;1.20;;;16.00;99.90;;;;;;4986919;28;20137;-67
2022/07/06 05:23:23;;;;;;;4.10;1.08;;;15.90;99.90;;;;;;4985155;28;22929;-67
2022/07/06 05:25:49;;;;;;;2.15;0.90;;;15.90;99.90;;;;;;4988829;28;20062;-65
2022/07/06 05:28:17;;;;;;;3.03;1.08;;;16.00;99.90;;;;;;4986388;28;20081;-70
2022/07/06 05:30:44;;;;;;;6.88;1.23;;;16.10;99.90;;;;;;5004136;28;20065;-70
2022/07/06 05:33:12;;;;;;;2.30;0.80;;;16.10;99.90;;;;;;4987275;28;20072;-67
2022/07/06 05:35:39;;;;;;;3.15;0.88;;;16.20;99.90;;;;;;4987395;28;20054;-66
2022/07/06 05:38:20;;;;;;;;;;;16.20;99.90;;;;;;4989132;28;20085;-69
2022/07/06 05:40:48;;;;;;;1.23;1.08;;;16.20;99.90;;;;;;4986915;28;19948;-70
2022/07/06 05:43:16;;;;;;;5.38;1.50;;;16.20;99.90;;;;;;5003210;28;20140;-69
2022/07/06 05:45:43;;;;;;;4.90;1.35;;;16.30;99.90;;;;;;4986107;28;20056;-70
2022/07/06 05:50:57;;;;;;;1.27;0.70;;;16.30;99.90;;;;;;4986489;28;20053;-70
2022/07/06 05:53:24;;;;;;;3.90;1.20;;;16.30;99.90;;;;;;4984306;28;20153;-68
2022/07/06 05:55:53;;;;;;;7.67;1.53;;;16.40;99.90;;;;;;4987214;28;20046;-68
2022/07/06 05:58:21;;;;;;;4.00;1.38;;;16.30;99.90;;;;;;4985602;28;20069;-73
2022/07/06 06:00:49;;;;;;;2.63;1.08;;;16.40;99.90;;;;;;4986231;28;20061;-66
2022/07/06 06:03:18;;;;;;;5.47;1.60;;;16.50;99.90;;;;;;4985603;28;20101;-71
2022/07/06 06:05:47;;;;;;;3.15;1.10;;;16.50;99.90;;;;;;4985977;28;20062;-66
2022/07/06 06:08:17;;;;;;;1.60;0.53;;;16.50;99.90;;;;;;4987933;28;20052;-67
2022/07/06 06:10:44;;;;;;;2.97;0.80;;;16.40;99.90;;;;;;4985977;28;20061;-68
2022/07/06 06:13:14;;;;;;;7.85;1.67;;;16.30;99.90;;;;;;4984210;28;20061;-65
2022/07/06 06:15:41;;;;;;;2.10;1.15;;;16.30;99.90;;;;;;4969220;28;20118;-71
2022/07/06 06:18:08;;;;;;;11.20;1.17;;;16.40;99.90;;;;;;4985531;28;20072;-66
2022/07/06 06:20:35;;;;;;;2.42;0.82;;;16.40;99.90;;;;;;4987111;28;20046;-66
2022/07/06 06:23:04;;;;;;;3.15;0.95;;;16.50;99.90;;;;;;4985807;28;20065;-69
2022/07/06 06:25:36;;;;;;;1.15;0.85;;;16.60;99.90;;;;;;4986682;28;20119;-64
2022/07/06 06:28:08;;;;;;;1.90;0.65;;;16.60;99.90;;;;;;4986559;28;20042;-72
2022/07/06 06:30:36;;;;;;;4.38;1.00;;;16.70;99.90;;;;;;4987893;28;20050;-69
2022/07/06 06:33:18;;;;;;;1.67;1.23;;;16.70;99.90;;;;;;4984093;28;20128;-70
2022/07/06 06:35:46;;;;;;;2.85;1.17;;;16.60;99.90;;;;;;4988748;28;20605;-70
2022/07/06 06:38:14;;;;;;;6.38;1.35;;;16.50;99.90;;;;;;4987572;28;20046;-75
2022/07/06 06:40:41;;;;;;;2.78;1.10;;;16.50;99.90;;;;;;4988211;28;20792;-69
2022/07/06 06:43:08;;;;;;;2.45;0.98;;;16.60;99.90;;;;;;4985390;28;20428;-70
2022/07/06 06:45:54;;;;;;;4.78;0.98;;;16.60;99.90;;;;;;4984803;28;20057;-71
2022/07/06 06:48:22;;;;;;;6.55;1.40;;;16.60;99.90;;;;;;4987681;28;20053;-70
2022/07/06 06:50:49;;;;;;;3.50;1.02;;;16.70;99.90;;;;;;4987810;28;20073;-69
2022/07/06 06:53:16;;;;;;;4.70;1.60;;;16.90;99.90;;;;;;4984776;28;20074;-68
2022/07/06 06:55:43;;;;;;;3.92;2.03;;;16.80;99.90;;;;;;4988825;28;20058;-69
2022/07/06 06:58:10;;;;;;;7.25;2.33;;;16.90;99.90;;;;;;4987554;28;20179;-76
2022/07/06 07:00:37;;;;;;;3.53;1.23;;;16.90;99.90;;;;;;4987087;28;20143;-68
2022/07/06 07:03:04;;;;;;;5.45;1.17;;;16.80;99.90;;;;;;4986354;28;20058;-67
2022/07/06 07:05:31;;;;;;;4.07;1.13;;;16.80;99.90;;;;;;4988213;28;20077;-71
2022/07/06 07:07:58;;;;;;;2.25;1.65;;;16.80;99.90;;;;;;4986653;28;20064;-71
2022/07/06 07:10:32;;;;;;;3.03;0.77;;;16.80;99.90;;;;;;4987585;28;20494;-67
2022/07/06 07:12:59;;;;;;;1.77;1.00;;;16.80;99.90;;;;;;4988469;28;20085;-75
2022/07/06 07:15:26;;;;;;;3.10;1.00;;;16.90;99.90;;;;;;4987231;28;20096;-69
2022/07/06 07:17:53;;;;;;;5.40;1.30;;;16.90;99.90;;;;;;4988490;28;20149;-67
2022/07/06 07:20:20;;;;;;;2.95;1.13;;;16.90;99.90;;;;;;4987470;28;20050;-71
2022/07/06 07:22:47;;;;;;;5.05;1.42;;;17.00;99.90;;;;;;4989474;28;20070;-68
2022/07/06 07:25:14;;;;;;;1.40;0.70;;;17.00;99.90;;;;;;4987123;28;20100;-66
2022/07/06 07:27:41;;;;;;;1.75;1.20;;;17.00;99.90;;;;;;4988815;28;20759;-72
2022/07/06 07:30:09;;;;;;;3.30;1.35;;;17.00;99.90;;;;;;4987156;28;20070;-68
2022/07/06 07:32:35;;;;;;;1.70;1.00;;;17.10;99.90;;;;;;4988006;28;20061;-70
2022/07/06 07:35:03;;;;;;;2.67;0.90;;;17.10;99.90;;;;;;4987904;28;20128;-73
2022/07/06 07:37:30;;;;;;;1.15;0.90;;;16.90;99.90;;;;;;4987010;28;20140;-67
2022/07/06 07:39:57;;;;;;;2.15;1.02;;;16.90;99.90;;;;;;4988563;28;20155;-71
2022/07/06 07:42:24;;;;;;;4.43;1.10;;;16.90;99.90;;;;;;4988147;28;20057;-72
2022/07/06 07:44:51;;;;;;;3.83;1.30;;;16.90;99.90;;;;;;4987400;28;20115;-65
2022/07/06 07:47:18;;;;;;;3.00;0.93;;;16.80;99.90;;;;;;4986858;28;20076;-71
2022/07/06 07:49:45;;;;;;;3.95;1.52;;;16.80;99.90;;;;;;4987216;28;20046;-68
2022/07/06 07:52:12;;;;;;;3.00;1.35;;;16.80;99.90;;;;;;4988196;28;20440;-70
2022/07/06 07:54:39;;;;;;;5.30;1.30;;;16.80;99.90;;;;;;4986952;28;20156;-70
2022/07/06 07:57:13;;;;;;;3.95;1.17;;;16.80;99.90;;;;;;4985315;28;20133;-65
2022/07/06 07:59:42;;;;;;;3.20;1.17;;;16.80;99.90;;;;;;4986883;28;20061;-68
2022/07/06 08:02:09;;;;;;;1.73;1.08;;;16.80;99.90;;;;;;4987864;28;20531;-68
2022/07/06 08:04:36;;;;;;;7.65;2.13;;;16.90;99.90;;;;;;4987219;28;20177;-65
2022/07/06 08:07:03;;;;;;;2.25;1.30;;;17.10;99.90;;;;;;4988559;28;20096;-68
2022/07/06 08:09:30;;;;;;;3.42;1.17;;;17.20;99.90;;;;;;4988383;28;20575;-66
2022/07/06 08:11:58;;;;;;;3.08;1.40;;;17.30;99.90;;;;;;4989454;28;20061;-69
2022/07/06 08:14:25;;;;;;;6.10;1.55;;;17.30;99.90;;;;;;4990409;28;20539;-69
2022/07/06 08:16:52;;;;;;;3.60;0.95;;;17.40;99.90;;;;;;4990214;28;20046;-70
2022/07/06 08:19:19;;;;;;;3.25;1.48;;;17.40;99.90;;;;;;4988386;28;20053;-70
2022/07/06 08:21:46;;;;;;;2.53;1.30;;;17.40;99.90;;;;;;4990489;28;20053;-67
2022/07/06 08:24:13;;;;;;;3.42;1.15;;;17.40;99.90;;;;;;4990666;28;20157;-72
2022/07/06 08:26:40;;;;;;;1.70;0.90;;;17.50;99.90;;;;;;4988674;28;20053;-67
2022/07/06 08:29:07;;;;;;;1.13;0.95;;;17.60;99.90;;;;;;4987348;28;20052;-65
2022/07/06 08:31:34;;;;;;;4.35;1.10;;;17.70;99.90;;;;;;4991167;28;20050;-72
2022/07/06 08:34:21;;;;;;;5.53;2.10;;;17.70;99.90;;;;;;4991240;28;20046;-65
2022/07/06 08:36:48;;;;;;;3.60;1.30;;;17.80;99.90;;;;;;4990880;28;20093;-66
2022/07/06 08:39:16;;;;;;;5.07;2.40;;;17.90;99.90;;;;;;4989246;28;20173;-74
2022/07/06 08:41:47;;;;;;;4.05;1.08;;;18.00;99.90;;;;;;4988960;28;20154;-67
2022/07/06 08:44:17;;;;;;;7.28;1.48;;;18.20;99.90;;;;;;4990475;28;20053;-68
2022/07/06 08:46:45;;;;;;;2.28;1.00;;;18.30;99.90;;;;;;4990404;28;20085;-71
2022/07/06 08:49:16;;;;;;;2.33;0.80;;;18.20;99.90;;;;;;4987618;28;20053;-68
2022/07/06 08:51:44;;;;;;;4.63;0.73;;;18.20;99.90;;;;;;4980942;28;20050;-70
2022/07/06 08:54:12;;;;;;;6.10;1.55;;;18.30;99.90;;;;;;4990482;28;20081;-68
2022/07/06 08:56:39;;;;;;;3.78;1.33;;;18.30;99.90;;;;;;4989787;28;20750;-68
2022/07/06 08:59:15;;;;;;;2.95;1.02;;;18.20;99.90;;;;;;4986739;28;20042;-69
2022/07/06 09:01:44;;;;;;;3.67;1.00;;;18.10;99.90;;;;;;4989867;28;20065;-66
2022/07/06 09:04:13;;;;;;;4.53;1.42;;;18.00;99.90;;;;;;4990670;28;20125;-66
2022/07/06 09:06:45;;;;;;;3.53;1.17;;;17.80;99.90;;;;;;4989703;28;20085;-67
2022/07/06 09:09:24;;;;;;;5.22;2.03;;;17.60;99.90;;;;;;4988395;28;20135;-65
2022/07/06 09:11:51;;;;;;;4.18;1.83;;;17.70;99.90;;;;;;4989661;28;20054;-69
2022/07/06 09:14:21;;;;;;;4.18;2.03;;;17.80;99.90;;;;;;4990460;28;20050;-67
2022/07/06 09:17:00;;;;;;;3.08;1.00;;;17.90;99.90;;;;;;4989896;28;20050;-70
2022/07/06 09:19:27;;;;;;;2.60;0.80;;;17.90;99.90;;;;;;4988037;28;20068;-71
2022/07/06 09:21:54;;;;;;;2.53;1.20;;;17.90;99.90;;;;;;4989169;28;20647;-71
2022/07/06 09:24:21;;;;;;;2.25;0.98;;;18.00;99.90;;;;;;4989506;28;20216;-74
2022/07/06 09:26:48;;;;;;;1.92;1.52;;;17.90;99.90;;;;;;4988093;28;20074;-71
2022/07/06 09:29:15;;;;;;;14.32;2.55;;;17.90;99.90;;;;;;4987977;28;20141;-70
2022/07/06 09:31:42;;;;;;;2.70;1.52;;;18.00;99.90;;;;;;4989819;28;20050;-70
2022/07/06 09:34:12;;;;;;;1.70;1.30;;;18.10;99.90;;;;;;4989471;28;20167;-68
2022/07/06 09:36:49;;;;;;;2.90;1.25;;;18.20;99.90;;;;;;5005598;28;20054;-68
2022/07/06 09:39:17;;;;;;;4.82;1.42;;;18.30;99.90;;;;;;4987820;28;20050;-69
2022/07/06 09:41:46;;;;;;;3.05;1.13;;;18.40;99.90;;;;;;4989705;28;20964;-72
2022/07/06 09:44:17;;;;;;;7.28;2.17;;;18.40;99.90;;;;;;4989023;28;20169;-66
2022/07/06 09:46:47;;;;;;;3.63;1.40;;;18.50;99.90;;;;;;4989993;28;20136;-69
2022/07/06 09:49:18;;;;;;;4.00;1.27;;;18.50;99.90;;;;;;4988222;28;20599;-67
2022/07/06 09:51:47;;;;;;;3.60;1.00;;;18.50;99.90;;;;;;4989619;28;20140;-68
2022/07/06 09:54:15;;;;;;;4.43;1.50;;;18.50;99.90;;;;;;4988809;28;20101;-72
2022/07/06 09:56:44;;;;;;;3.42;1.65;;;18.40;99.90;;;;;;4989441;28;20065;-68
2022/07/06 09:59:13;;;;;;;5.95;1.95;;;18.30;99.90;;;;;;4986902;28;20118;-70
2022/07/06 10:01:41;;;;;;;2.95;1.25;;;18.20;99.90;;;;;;4989153;28;20123;-67
2022/07/06 10:04:09;;;;;;;3.88;1.00;;;18.20;99.90;;;;;;4989598;28;20047;-66
2022/07/06 10:06:36;;;;;;;4.72;1.15;;;18.20;99.90;;;;;;4990417;28;20058;-70
2022/07/06 10:09:09;;;;;;;3.38;1.17;;;18.40;99.90;;;;;;4987170;28;20058;-66
2022/07/06 10:11:47;;;;;;;3.55;1.00;;;18.60;99.90;;;;;;4987694;28;20222;-72
2022/07/06 10:14:18;;;;;;;4.85;2.28;;;18.50;99.90;;;;;;4987366;28;20050;-70
2022/07/06 10:16:46;;;;;;;4.03;2.00;;;18.60;99.90;;;;;;4989664;28;20074;-67
2022/07/06 10:19:15;;;;;;;2.88;1.15;;;18.70;99.90;;;;;;4987171;28;20108;-66
2022/07/06 10:21:43;;;;;;;1.65;0.95;;;18.70;99.90;;;;;;4988481;28;20168;-66
2022/07/06 10:24:12;;;;;;;4.78;1.75;;;18.80;99.90;;;;;;4987823;28;20105;-71
2022/07/06 10:26:40;;;;;;;1.95;0.75;;;18.90;99.90;;;;;;4987567;28;20142;-69
2022/07/06 10:29:07;;;;;;;2.20;0.80;;;19.10;99.90;;;;;;4988622;28;20143;-67
2022/07/06 10:31:39;;;;;;;1.70;0.90;;;19.10;99.90;;;;;;4988516;28;20125;-68
2022/07/06 10:34:10;;;;;;;3.22;1.05;;;19.10;99.90;;;;;;4989287;28;20265;-67
2022/07/06 10:36:38;;;;;;;3.10;0.88;;;19.20;99.90;;;;;;4990098;28;20066;-76
2022/07/06 10:41:52;;;;;;;2.30;1.45;;;19.30;99.90;;;;;;4990849;28;20634;-71
2022/07/06 10:44:24;;;;;;;4.38;1.73;;;19.30;99.90;;;;;;4989298;28;20124;-68
2022/07/06 10:46:55;;;;;;;1.45;1.15;;;19.40;99.90;;;;;;4988208;28;20054;-68
2022/07/06 10:49:24;;;;;;;4.72;1.83;;;19.40;99.90;;;;;;4988436;28;20776;-72
2022/07/06 10:52:11;;;;;;;1.85;1.52;;;19.70;99.90;;;;;;4991471;28;20050;-65
2022/07/06 10:54:43;;;;;;;1.98;1.10;;;19.90;99.90;;;;;;4990639;28;20138;-66
2022/07/06 10:57:14;;;;;;;2.50;1.38;;;19.80;99.90;;;;;;4988409;28;20054;-66
2022/07/06 11:00:00;;;;;;;3.25;1.60;;;19.70;99.90;;;;;;4991120;28;20060;-70
2022/07/06 11:02:38;;;;;;;3.95;1.15;;;19.80;99.90;;;;;;4989421;28;20062;-66
2022/07/06 11:05:11;;;;;;;3.30;1.00;;;19.90;99.90;;;;;;4987053;28;20049;-73
2022/07/06 11:08:01;;;;;;;3.20;1.42;;;19.90;99.90;;;;;;4988899;28;20053;-65
2022/07/06 11:10:47;;;;;;;2.05;1.02;;;19.90;99.90;;;;;;4989131;28;20042;-70
2022/07/06 11:13:29;;;;;;;2.42;1.23;;;19.90;99.90;;;;;;4987676;28;20100;-70
2022/07/06 11:16:04;;;;;;;1.27;0.90;;;20.00;99.90;;;;;;4989256;28;20065;-68
2022/07/06 11:18:41;;;;;;;6.93;1.25;;;19.80;99.90;;;;;;4989025;28;20050;-71
2022/07/06 11:21:18;;;;;;;4.72;0.98;;;19.80;99.90;;;;;;4986877;28;20961;-69
2022/07/06 11:23:49;;;;;;;6.07;1.35;;;20.00;99.90;;;;;;4990389;28;20137;-65
2022/07/06 11:26:17;;;;;;;2.40;0.93;;;20.20;99.90;;;;;;4989049;28;20078;-74
2022/07/06 11:28:47;;;;;;;5.03;0.80;;;20.40;99.90;;;;;;4989166;28;20058;-68
2022/07/06 11:31:15;;;;;;;3.35;1.40;;;20.40;99.90;;;;;;4985603;28;20613;-74
2022/07/06 11:33:45;;;;;;;1.77;0.98;;;20.40;99.90;;;;;;4984642;28;20128;-70
2022/07/06 11:36:19;;;;;;;;;;;20.50;99.90;;;;;;4981485;28;20109;-67
2022/07/06 11:38:48;;;;;;;3.42;0.80;;;20.60;99.90;;;;;;4975951;28;19968;-64
2022/07/06 11:41:16;;;;;;;2.83;1.38;;;20.60;99.90;;;;;;4981811;28;20057;-70
2022/07/06 11:43:45;;;;;;;3.45;1.85;;;20.60;99.90;;;;;;4974893;28;20065;-70
2022/07/06 11:46:24;;;;;;;1.15;1.05;;;20.70;99.90;;;;;;4989428;28;20053;-70
2022/07/06 11:48:56;;;;;;;1.75;0.93;;;20.60;99.90;;;;;;4993630;28;20215;-68
2022/07/06 11:51:26;;;;;;;3.03;1.10;;;20.50;99.90;;;;;;4990419;28;20181;-67
2022/07/06 11:53:59;;;;;;;2.40;0.77;;;20.70;99.90;;;;;;4994121;28;20579;-70
2022/07/06 11:56:28;;;;;;;2.15;1.20;;;20.50;99.90;;;;;;4992762;28;20066;-72
2022/07/06 11:58:56;;;;;;;3.85;0.90;;;20.60;99.90;;;;;;4990590;28;20176;-70
2022/07/06 12:01:26;;;;;;;1.23;0.82;;;20.80;99.90;;;;;;4989847;28;20189;-65
2022/07/06 12:03:57;;;;;;;1.73;0.77;;;20.90;99.90;;;;;;4992688;28;20113;-70
2022/07/06 12:06:26;;;;;;;1.63;1.05;;;20.80;99.90;;;;;;4981147;28;20405;-72
2022/07/06 12:09:04;;;;;;;3.08;0.90;;;21.00;99.90;;;;;;4987000;28;20058;-69
2022/07/06 12:11:34;;;;;;;2.58;0.80;;;20.90;99.90;;;;;;4987662;28;20053;-72
2022/07/06 12:14:11;;;;;;;2.22;2.00;;;21.10;99.90;;;;;;4990282;28;20053;-70
2022/07/06 12:16:39;;;;;;;1.20;0.70;;;21.00;99.90;;;;;;4990974;28;20427;-71
2022/07/06 12:19:11;;;;;;;1.83;0.93;;;20.90;99.90;;;;;;4987996;28;20057;-70
2022/07/06 12:21:48;;;;;;;2.00;1.23;;;20.90;99.90;;;;;;4990826;28;20943;-69
2022/07/06 12:24:33;;;;;;;2.10;1.15;;;21.00;99.90;;;;;;4990650;28;20046;-68
2022/07/06 12:27:14;;;;;;;4.82;1.35;;;21.10;99.90;;;;;;4990319;28;20592;-68
2022/07/06 12:29:41;;;;;;;5.72;0.90;;;21.10;99.90;;;;;;4987351;28;20042;-67
2022/07/06 12:32:22;;;;;;;1.60;0.82;;;21.00;99.90;;;;;;4990690;28;20058;-72
2022/07/06 12:35:04;;;;;;;1.88;0.93;;;20.90;99.90;;;;;;4989215;28;20056;-70
2022/07/06 12:37:31;;;;;;;3.13;0.60;;;21.20;99.90;;;;;;4989063;28;20054;-67
2022/07/06 12:39:58;;;;;;;0.65;0.50;;;21.30;99.90;;;;;;4990003;28;20141;-68
2022/07/06 12:42:25;;;;;;;10.48;1.85;;;21.30;99.90;;;;;;4990298;28;20050;-66
2022/07/06 12:44:53;;;;;;;2.70;0.60;;;21.30;99.90;;;;;;4989126;28;20124;-68
2022/07/06 12:47:24;;;;;;;3.40;0.63;;;21.20;99.90;;;;;;4988125;28;20817;-70
2022/07/06 12:50:10;;;;;;;1.85;0.80;;;21.10;99.90;;;;;;4991022;28;20061;-64
2022/07/06 12:52:38;;;;;;;2.35;0.80;;;21.30;99.90;;;;;;4989664;28;20113;-65
2022/07/06 12:55:07;;;;;;;2.15;0.60;;;21.50;99.90;;;;;;4989545;28;20058;-66
2022/07/06 12:57:46;;;;;;;;;;;21.50;99.90;;;;;;4990718;28;20128;-68
2022/07/06 13:00:13;;;;;;;5.07;0.95;;;21.50;99.90;;;;;;4989703;28;20019;-67
2022/07/06 13:02:43;;;;;;;1.05;0.73;;;21.50;99.90;;;;;;4990150;28;20041;-69